sensor_id;sensor_type;location;lat;lon;timestamp;temperature;humidity
37002;DHT22;22913;51.910;8.374;2022-07-30T00:01:23;18.70;99.90
37002;DHT22;22913;51.910;8.374;2022-07-30T00:04:10;18.70;99.90
37002;DHT22;22913;51.910;8.374;2022-07-30T00:06:56;18.80;99.90
37002;DHT22;22913;51.910;8.374;2022-07-30T00:09:41;18.80;99.90
37002;DHT22;22913;51.910;8.374;2022-07-30T00:12:27;18.80;99.90
37002;DHT22;22913;51.910;8.374;2022-07-30T00:15:13;18.80;99.90
37002;DHT22;22913;51.910;8.374;2022-07-30T00:17:59;18.80;99.90
37002;DHT22;22913;51.910;8.374;2022-07-30T00:20:46;18.80;99.90
37002;DHT22;22913;51.910;8.374;2022-07-30T00:23:32;18.80;99.90
37002;DHT22;22913;51.910;8.374;2022-07-30T00:26:18;18.70;99.90
37002;DHT22;22913;51.910;8.374;2022-07-30T00:29:03;18.80;99.90
37002;DHT22;22913;51.910;8.374;2022-07-30T00:31:49;18.70;99.90
37002;DHT22;22913;51.910;8.374;2022-07-30T00:34:34;18.70;99.90
37002;DHT22;22913;51.910;8.374;2022-07-30T00:37:22;18.70;99.90
37002;DHT22;22913;51.910;8.374;2022-07-30T00:40:08;18.60;99.90
37002;DHT22;22913;51.910;8.374;2022-07-30T00:42:54;18.60;99.90
37002;DHT22;22913;51.910;8.374;2022-07-30T00:45:40;18.60;99.90
37002;DHT22;22913;51.910;8.374;2022-07-30T00:48:26;18.60;99.90
37002;DHT22;22913;51.910;8.374;2022-07-30T00:51:11;18.60;99.90
37002;DHT22;22913;51.910;8.374;2022-07-30T00:53:58;18.50;99.90
37002;DHT22;22913;51.910;8.374;2022-07-30T00:56:44;18.50;99.90
37002;DHT22;22913;51.910;8.374;2022-07-30T00:59:31;18.50;99.90
37002;DHT22;22913;51.910;8.374;2022-07-30T01:02:17;18.50;99.90
37002;DHT22;22913;51.910;8.374;2022-07-30T01:05:04;18.40;99.90
37002;DHT22;22913;51.910;8.374;2022-07-30T01:07:49;18.40;99.90
37002;DHT22;22913;51.910;8.374;2022-07-30T01:10:36;18.30;99.90
37002;DHT22;22913;51.910;8.374;2022-07-30T01:13:22;18.30;99.90
37002;DHT22;22913;51.910;8.374;2022-07-30T01:16:08;18.30;99.90
37002;DHT22;22913;51.910;8.374;2022-07-30T01:18:55;18.30;99.90
37002;DHT22;22913;51.910;8.374;2022-07-30T01:22:08;18.30;99.90
37002;DHT22;22913;51.910;8.374;2022-07-30T01:25:00;18.30;99.90
37002;DHT22;22913;51.910;8.374;2022-07-30T01:27:51;18.30;99.90
37002;DHT22;22913;51.910;8.374;2022-07-30T01:30:40;18.20;99.90
37002;DHT22;22913;51.910;8.374;2022-07-30T01:33:26;18.20;99.90
37002;DHT22;22913;51.910;8.374;2022-07-30T01:36:16;18.20;99.90
37002;DHT22;22913;51.910;8.374;2022-07-30T01:39:02;18.30;99.90
37002;DHT22;22913;51.910;8.374;2022-07-30T01:41:49;18.20;99.90
37002;DHT22;22913;51.910;8.374;2022-07-30T01:44:36;18.20;99.90
37002;DHT22;22913;51.910;8.374;2022-07-30T01:47:24;18.20;99.90
37002;DHT22;22913;51.910;8.374;2022-07-30T01:50:11;18.30;99.90
37002;DHT22;22913;51.910;8.374;2022-07-30T01:52:59;18.30;99.90
37002;DHT22;22913;51.910;8.374;2022-07-30T01:55:45;18.20;99.90
37002;DHT22;22913;51.910;8.374;2022-07-30T01:58:36;18.20;99.90
37002;DHT22;22913;51.910;8.374;2022-07-30T02:01:24;18.20;99.90
37002;DHT22;22913;51.910;8.374;2022-07-30T02:04:09;18.10;99.90
37002;DHT22;22913;51.910;8.374;2022-07-30T02:07:00;18.20;99.90
37002;DHT22;22913;51.910;8.374;2022-07-30T02:09:52;18.20;99.90
37002;DHT22;22913;51.910;8.374;2022-07-30T02:12:42;18.20;99.90
37002;DHT22;22913;51.910;8.374;2022-07-30T02:15:34;18.20;99.90
37002;DHT22;22913;51.910;8.374;2022-07-30T02:18:29;18.10;99.90
37002;DHT22;22913;51.910;8.374;2022-07-30T02:21:16;18.10;99.90
37002;DHT22;22913;51.910;8.374;2022-07-30T02:24:06;18.20;99.90
37002;DHT22;22913;51.910;8.374;2022-07-30T02:26:55;18.10;99.90
37002;DHT22;22913;51.910;8.374;2022-07-30T02:29:42;18.10;99.90
37002;DHT22;22913;51.910;8.374;2022-07-30T02:32:32;18.10;99.90
37002;DHT22;22913;51.910;8.374;2022-07-30T02:35:21;18.00;99.90
37002;DHT22;22913;51.910;8.374;2022-07-30T02:38:09;18.00;99.90
37002;DHT22;22913;51.910;8.374;2022-07-30T02:40:59;18.00;99.90
37002;DHT22;22913;51.910;8.374;2022-07-30T02:43:47;17.90;99.90
37002;DHT22;22913;51.910;8.374;2022-07-30T02:46:35;17.90;99.90
37002;DHT22;22913;51.910;8.374;2022-07-30T02:49:23;17.90;99.90
37002;DHT22;22913;51.910;8.374;2022-07-30T02:52:11;17.90;99.90
37002;DHT22;22913;51.910;8.374;2022-07-30T02:54:59;17.80;99.90
37002;DHT22;22913;51.910;8.374;2022-07-30T02:57:46;17.80;99.90
37002;DHT22;22913;51.910;8.374;2022-07-30T03:00:33;17.80;99.90
37002;DHT22;22913;51.910;8.374;2022-07-30T03:03:19;17.80;99.90
37002;DHT22;22913;51.910;8.374;2022-07-30T03:06:06;17.70;99.90
37002;DHT22;22913;51.910;8.374;2022-07-30T03:08:56;17.70;99.90
37002;DHT22;22913;51.910;8.374;2022-07-30T03:11:42;17.70;99.90
37002;DHT22;22913;51.910;8.374;2022-07-30T03:14:29;17.70;99.90
37002;DHT22;22913;51.910;8.374;2022-07-30T03:17:16;17.70;99.90
37002;DHT22;22913;51.910;8.374;2022-07-30T03:20:04;17.70;99.90
37002;DHT22;22913;51.910;8.374;2022-07-30T03:22:53;17.60;99.90
37002;DHT22;22913;51.910;8.374;2022-07-30T03:25:41;17.60;99.90
37002;DHT22;22913;51.910;8.374;2022-07-30T03:28:31;17.60;99.90
37002;DHT22;22913;51.910;8.374;2022-07-30T03:31:17;17.50;99.90
37002;DHT22;22913;51.910;8.374;2022-07-30T03:34:04;17.50;99.90
37002;DHT22;22913;51.910;8.374;2022-07-30T03:36:52;17.60;99.90
37002;DHT22;22913;51.910;8.374;2022-07-30T03:39:39;17.50;99.90
37002;DHT22;22913;51.910;8.374;2022-07-30T03:42:28;17.50;99.90
37002;DHT22;22913;51.910;8.374;2022-07-30T03:45:14;17.40;99.90
37002;DHT22;22913;51.910;8.374;2022-07-30T03:48:03;17.40;99.90
37002;DHT22;22913;51.910;8.374;2022-07-30T03:50:52;17.40;99.90
37002;DHT22;22913;51.910;8.374;2022-07-30T03:53:40;17.40;99.90
37002;DHT22;22913;51.910;8.374;2022-07-30T03:56:26;17.40;99.90
37002;DHT22;22913;51.910;8.374;2022-07-30T03:59:14;17.40;99.90
37002;DHT22;22913;51.910;8.374;2022-07-30T04:02:00;17.30;99.90
37002;DHT22;22913;51.910;8.374;2022-07-30T04:04:46;17.30;99.90
37002;DHT22;22913;51.910;8.374;2022-07-30T04:07:32;17.30;99.90
37002;DHT22;22913;51.910;8.374;2022-07-30T04:10:18;17.30;99.90
37002;DHT22;22913;51.910;8.374;2022-07-30T04:13:03;17.30;99.90
37002;DHT22;22913;51.910;8.374;2022-07-30T04:15:57;17.30;99.90
37002;DHT22;22913;51.910;8.374;2022-07-30T04:18:49;17.30;99.90
37002;DHT22;22913;51.910;8.374;2022-07-30T04:21:37;17.30;99.90
37002;DHT22;22913;51.910;8.374;2022-07-30T04:24:25;17.30;99.90
37002;DHT22;22913;51.910;8.374;2022-07-30T04:27:11;17.30;99.90
37002;DHT22;22913;51.910;8.374;2022-07-30T04:29:58;17.20;99.90
37002;DHT22;22913;51.910;8.374;2022-07-30T04:32:45;17.20;99.90
37002;DHT22;22913;51.910;8.374;2022-07-30T04:35:33;17.30;99.90
37002;DHT22;22913;51.910;8.374;2022-07-30T04:38:19;17.30;99.90
37002;DHT22;22913;51.910;8.374;2022-07-30T04:41:05;17.20;99.90
37002;DHT22;22913;51.910;8.374;2022-07-30T04:43:55;17.20;99.90
37002;DHT22;22913;51.910;8.374;2022-07-30T04:46:41;17.20;99.90
37002;DHT22;22913;51.910;8.374;2022-07-30T04:49:29;17.20;99.90
37002;DHT22;22913;51.910;8.374;2022-07-30T04:52:17;17.20;99.90
37002;DHT22;22913;51.910;8.374;2022-07-30T04:55:05;17.20;99.90
37002;DHT22;22913;51.910;8.374;2022-07-30T04:57:54;17.20;99.90
37002;DHT22;22913;51.910;8.374;2022-07-30T05:00:41;17.20;99.90
37002;DHT22;22913;51.910;8.374;2022-07-30T05:03:28;17.30;99.90
37002;DHT22;22913;51.910;8.374;2022-07-30T05:06:16;17.30;99.90
37002;DHT22;22913;51.910;8.374;2022-07-30T05:09:02;17.30;99.90
37002;DHT22;22913;51.910;8.374;2022-07-30T05:11:50;17.30;99.90
37002;DHT22;22913;51.910;8.374;2022-07-30T05:14:36;17.30;99.90
37002;DHT22;22913;51.910;8.374;2022-07-30T05:17:22;17.30;99.90
37002;DHT22;22913;51.910;8.374;2022-07-30T05:20:09;17.30;99.90
37002;DHT22;22913;51.910;8.374;2022-07-30T05:22:56;17.30;99.90
37002;DHT22;22913;51.910;8.374;2022-07-30T05:25:41;17.30;99.90
37002;DHT22;22913;51.910;8.374;2022-07-30T05:28:27;17.40;99.90
37002;DHT22;22913;51.910;8.374;2022-07-30T05:31:14;17.40;99.90
37002;DHT22;22913;51.910;8.374;2022-07-30T05:34:01;17.40;99.90
37002;DHT22;22913;51.910;8.374;2022-07-30T05:36:47;17.40;99.90
37002;DHT22;22913;51.910;8.374;2022-07-30T05:39:35;17.40;99.90
37002;DHT22;22913;51.910;8.374;2022-07-30T05:42:21;17.40;99.90
37002;DHT22;22913;51.910;8.374;2022-07-30T05:45:08;17.40;99.90
37002;DHT22;22913;51.910;8.374;2022-07-30T05:47:54;17.30;99.90
37002;DHT22;22913;51.910;8.374;2022-07-30T05:50:41;17.40;99.90
37002;DHT22;22913;51.910;8.374;2022-07-30T05:53:27;17.40;99.90
37002;DHT22;22913;51.910;8.374;2022-07-30T05:56:15;17.40;99.90
37002;DHT22;22913;51.910;8.374;2022-07-30T05:59:01;17.40;99.90
37002;DHT22;22913;51.910;8.374;2022-07-30T06:01:46;17.50;99.90
37002;DHT22;22913;51.910;8.374;2022-07-30T06:04:32;17.50;99.90
37002;DHT22;22913;51.910;8.374;2022-07-30T06:07:19;17.50;99.90
37002;DHT22;22913;51.910;8.374;2022-07-30T06:10:05;17.50;99.90
37002;DHT22;22913;51.910;8.374;2022-07-30T06:12:55;17.40;99.90
37002;DHT22;22913;51.910;8.374;2022-07-30T06:15:41;17.40;99.90
37002;DHT22;22913;51.910;8.374;2022-07-30T06:18:27;17.40;99.90
37002;DHT22;22913;51.910;8.374;2022-07-30T06:21:13;17.50;99.90
37002;DHT22;22913;51.910;8.374;2022-07-30T06:23:58;17.60;99.90
37002;DHT22;22913;51.910;8.374;2022-07-30T06:26:44;17.70;99.90
37002;DHT22;22913;51.910;8.374;2022-07-30T06:29:32;17.80;99.90
37002;DHT22;22913;51.910;8.374;2022-07-30T06:32:17;17.90;99.90
37002;DHT22;22913;51.910;8.374;2022-07-30T06:35:04;17.90;99.90
37002;DHT22;22913;51.910;8.374;2022-07-30T06:37:50;18.00;99.90
37002;DHT22;22913;51.910;8.374;2022-07-30T06:40:35;18.00;99.90
37002;DHT22;22913;51.910;8.374;2022-07-30T06:43:21;18.10;99.90
37002;DHT22;22913;51.910;8.374;2022-07-30T06:46:08;18.10;99.90
37002;DHT22;22913;51.910;8.374;2022-07-30T06:48:53;18.10;99.90
37002;DHT22;22913;51.910;8.374;2022-07-30T06:51:39;18.00;99.90
37002;DHT22;22913;51.910;8.374;2022-07-30T06:54:25;18.10;99.90
37002;DHT22;22913;51.910;8.374;2022-07-30T06:57:10;18.20;99.90
37002;DHT22;22913;51.910;8.374;2022-07-30T06:59:56;18.20;99.90
37002;DHT22;22913;51.910;8.374;2022-07-30T07:02:43;18.30;99.90
37002;DHT22;22913;51.910;8.374;2022-07-30T07:05:28;18.20;99.90
37002;DHT22;22913;51.910;8.374;2022-07-30T07:08:14;18.30;99.90
37002;DHT22;22913;51.910;8.374;2022-07-30T07:11:01;18.40;99.90
37002;DHT22;22913;51.910;8.374;2022-07-30T07:13:47;18.40;99.90
37002;DHT22;22913;51.910;8.374;2022-07-30T07:16:33;18.30;99.90
37002;DHT22;22913;51.910;8.374;2022-07-30T07:19:20;18.40;99.90
37002;DHT22;22913;51.910;8.374;2022-07-30T07:22:05;18.50;99.90
37002;DHT22;22913;51.910;8.374;2022-07-30T07:24:51;18.50;99.90
37002;DHT22;22913;51.910;8.374;2022-07-30T07:27:37;18.60;99.90
37002;DHT22;22913;51.910;8.374;2022-07-30T07:30:23;18.70;99.90
37002;DHT22;22913;51.910;8.374;2022-07-30T07:33:08;18.80;99.90
37002;DHT22;22913;51.910;8.374;2022-07-30T07:35:56;18.80;99.90
37002;DHT22;22913;51.910;8.374;2022-07-30T07:38:41;18.90;99.90
37002;DHT22;22913;51.910;8.374;2022-07-30T07:41:27;18.90;99.90
37002;DHT22;22913;51.910;8.374;2022-07-30T07:44:13;19.00;99.90
37002;DHT22;22913;51.910;8.374;2022-07-30T07:46:59;18.90;99.90
37002;DHT22;22913;51.910;8.374;2022-07-30T07:49:44;19.00;99.90
37002;DHT22;22913;51.910;8.374;2022-07-30T07:52:31;19.10;99.90
37002;DHT22;22913;51.910;8.374;2022-07-30T07:55:17;19.20;99.90
37002;DHT22;22913;51.910;8.374;2022-07-30T07:58:02;19.40;99.90
37002;DHT22;22913;51.910;8.374;2022-07-30T08:00:48;19.40;99.90
37002;DHT22;22913;51.910;8.374;2022-07-30T08:03:34;19.50;99.90
37002;DHT22;22913;51.910;8.374;2022-07-30T08:06:20;19.60;99.90
37002;DHT22;22913;51.910;8.374;2022-07-30T08:09:06;19.70;99.90
37002;DHT22;22913;51.910;8.374;2022-07-30T08:11:52;19.70;99.90
37002;DHT22;22913;51.910;8.374;2022-07-30T08:14:38;19.70;99.90
37002;DHT22;22913;51.910;8.374;2022-07-30T08:17:24;19.80;99.90
37002;DHT22;22913;51.910;8.374;2022-07-30T08:20:11;20.00;99.90
37002;DHT22;22913;51.910;8.374;2022-07-30T08:22:57;20.00;99.90
37002;DHT22;22913;51.910;8.374;2022-07-30T08:25:44;20.10;99.90
37002;DHT22;22913;51.910;8.374;2022-07-30T08:28:29;20.20;99.90
37002;DHT22;22913;51.910;8.374;2022-07-30T08:31:15;20.30;99.90
37002;DHT22;22913;51.910;8.374;2022-07-30T08:34:01;20.30;99.90
37002;DHT22;22913;51.910;8.374;2022-07-30T08:36:48;20.40;99.90
37002;DHT22;22913;51.910;8.374;2022-07-30T08:39:34;20.40;99.90
37002;DHT22;22913;51.910;8.374;2022-07-30T08:42:21;20.50;99.90
37002;DHT22;22913;51.910;8.374;2022-07-30T08:45:09;20.60;99.90
37002;DHT22;22913;51.910;8.374;2022-07-30T08:47:58;20.60;99.90
37002;DHT22;22913;51.910;8.374;2022-07-30T08:50:44;20.70;99.90
37002;DHT22;22913;51.910;8.374;2022-07-30T08:53:32;20.80;99.90
37002;DHT22;22913;51.910;8.374;2022-07-30T08:56:18;20.90;99.90
37002;DHT22;22913;51.910;8.374;2022-07-30T08:59:05;20.90;99.90
37002;DHT22;22913;51.910;8.374;2022-07-30T09:01:51;21.00;99.90
37002;DHT22;22913;51.910;8.374;2022-07-30T09:04:37;21.10;99.90
37002;DHT22;22913;51.910;8.374;2022-07-30T09:07:22;21.30;99.90
37002;DHT22;22913;51.910;8.374;2022-07-30T09:10:09;21.40;99.90
37002;DHT22;22913;51.910;8.374;2022-07-30T09:12:54;21.50;99.90
37002;DHT22;22913;51.910;8.374;2022-07-30T09:15:41;21.70;99.90
37002;DHT22;22913;51.910;8.374;2022-07-30T09:18:29;21.70;99.90
37002;DHT22;22913;51.910;8.374;2022-07-30T09:21:16;21.80;99.90
37002;DHT22;22913;51.910;8.374;2022-07-30T09:24:03;21.80;99.90
37002;DHT22;22913;51.910;8.374;2022-07-30T09:26:54;21.90;99.90
37002;DHT22;22913;51.910;8.374;2022-07-30T09:29:40;22.00;99.90
37002;DHT22;22913;51.910;8.374;2022-07-30T09:32:46;22.20;99.90
37002;DHT22;22913;51.910;8.374;2022-07-30T09:35:32;22.20;99.90
37002;DHT22;22913;51.910;8.374;2022-07-30T09:38:17;22.30;99.90
37002;DHT22;22913;51.910;8.374;2022-07-30T09:41:04;22.40;99.90
37002;DHT22;22913;51.910;8.374;2022-07-30T09:43:51;22.40;99.90
37002;DHT22;22913;51.910;8.374;2022-07-30T09:46:41;22.70;99.90
37002;DHT22;22913;51.910;8.374;2022-07-30T09:49:29;22.80;99.90
37002;DHT22;22913;51.910;8.374;2022-07-30T09:52:26;22.80;99.90
37002;DHT22;22913;51.910;8.374;2022-07-30T09:55:13;22.70;99.90
37002;DHT22;22913;51.910;8.374;2022-07-30T09:58:00;22.80;99.90
37002;DHT22;22913;51.910;8.374;2022-07-30T10:00:45;23.00;99.90
37002;DHT22;22913;51.910;8.374;2022-07-30T10:03:31;23.00;99.90
37002;DHT22;22913;51.910;8.374;2022-07-30T10:06:18;23.00;99.90
37002;DHT22;22913;51.910;8.374;2022-07-30T10:09:24;23.20;99.90
37002;DHT22;22913;51.910;8.374;2022-07-30T10:12:12;23.40;99.90
37002;DHT22;22913;51.910;8.374;2022-07-30T10:15:00;23.50;99.90
37002;DHT22;22913;51.910;8.374;2022-07-30T10:17:47;23.70;99.90
37002;DHT22;22913;51.910;8.374;2022-07-30T10:20:33;24.00;99.90
37002;DHT22;22913;51.910;8.374;2022-07-30T10:23:20;24.30;99.90
37002;DHT22;22913;51.910;8.374;2022-07-30T10:26:08;24.50;99.90
37002;DHT22;22913;51.910;8.374;2022-07-30T10:28:54;24.60;99.90
37002;DHT22;22913;51.910;8.374;2022-07-30T10:31:40;24.80;99.90
37002;DHT22;22913;51.910;8.374;2022-07-30T10:34:28;24.80;99.90
37002;DHT22;22913;51.910;8.374;2022-07-30T10:37:15;25.00;99.90
37002;DHT22;22913;51.910;8.374;2022-07-30T10:40:16;25.10;99.90
37002;DHT22;22913;51.910;8.374;2022-07-30T10:43:22;25.40;99.90
37002;DHT22;22913;51.910;8.374;2022-07-30T10:46:14;25.70;99.90
37002;DHT22;22913;51.910;8.374;2022-07-30T10:49:09;25.70;99.90
37002;DHT22;22913;51.910;8.374;2022-07-30T10:51:55;26.00;99.90
37002;DHT22;22913;51.910;8.374;2022-07-30T10:54:42;26.00;99.90
37002;DHT22;22913;51.910;8.374;2022-07-30T10:57:30;25.90;99.90
37002;DHT22;22913;51.910;8.374;2022-07-30T11:00:16;25.90;99.90
37002;DHT22;22913;51.910;8.374;2022-07-30T11:03:15;26.10;99.90
37002;DHT22;22913;51.910;8.374;2022-07-30T11:06:23;26.20;99.90
37002;DHT22;22913;51.910;8.374;2022-07-30T11:09:34;26.20;99.90
37002;DHT22;22913;51.910;8.374;2022-07-30T11:12:51;26.10;99.90
37002;DHT22;22913;51.910;8.374;2022-07-30T11:15:55;26.30;99.90
37002;DHT22;22913;51.910;8.374;2022-07-30T11:19:05;26.40;99.90
37002;DHT22;22913;51.910;8.374;2022-07-30T11:22:21;26.70;99.90
37002;DHT22;22913;51.910;8.374;2022-07-30T11:25:09;27.20;99.90
37002;DHT22;22913;51.910;8.374;2022-07-30T11:27:57;27.40;99.90
37002;DHT22;22913;51.910;8.374;2022-07-30T11:30:45;27.50;99.90
37002;DHT22;22913;51.910;8.374;2022-07-30T11:33:32;27.60;99.90
37002;DHT22;22913;51.910;8.374;2022-07-30T11:36:18;27.80;99.90
37002;DHT22;22913;51.910;8.374;2022-07-30T11:39:04;28.00;99.90
37002;DHT22;22913;51.910;8.374;2022-07-30T11:42:22;28.10;99.90
37002;DHT22;22913;51.910;8.374;2022-07-30T11:45:25;28.30;99.90
37002;DHT22;22913;51.910;8.374;2022-07-30T11:48:14;28.10;99.90
37002;DHT22;22913;51.910;8.374;2022-07-30T11:51:00;28.10;99.90
37002;DHT22;22913;51.910;8.374;2022-07-30T11:53:59;28.10;99.90
37002;DHT22;22913;51.910;8.374;2022-07-30T11:56:49;28.20;99.90
37002;DHT22;22913;51.910;8.374;2022-07-30T11:59:51;28.30;99.90
37002;DHT22;22913;51.910;8.374;2022-07-30T12:02:38;28.60;99.90
37002;DHT22;22913;51.910;8.374;2022-07-30T12:05:25;28.50;99.90
37002;DHT22;22913;51.910;8.374;2022-07-30T12:08:12;28.20;99.90
37002;DHT22;22913;51.910;8.374;2022-07-30T12:10:58;28.20;99.90
37002;DHT22;22913;51.910;8.374;2022-07-30T12:13:54;28.50;99.90
37002;DHT22;22913;51.910;8.374;2022-07-30T12:16:48;28.80;99.90
37002;DHT22;22913;51.910;8.374;2022-07-30T12:19:43;29.10;99.90
37002;DHT22;22913;51.910;8.374;2022-07-30T12:22:31;29.20;99.90
37002;DHT22;22913;51.910;8.374;2022-07-30T12:25:16;29.10;99.90
37002;DHT22;22913;51.910;8.374;2022-07-30T12:28:03;29.20;99.90
37002;DHT22;22913;51.910;8.374;2022-07-30T12:30:49;29.40;99.90
37002;DHT22;22913;51.910;8.374;2022-07-30T12:33:37;29.70;99.90
37002;DHT22;22913;51.910;8.374;2022-07-30T12:36:26;30.00;99.90
37002;DHT22;22913;51.910;8.374;2022-07-30T12:39:18;30.30;99.90
37002;DHT22;22913;51.910;8.374;2022-07-30T12:42:04;30.50;99.90
37002;DHT22;22913;51.910;8.374;2022-07-30T12:44:50;30.50;99.90
37002;DHT22;22913;51.910;8.374;2022-07-30T12:47:35;31.00;99.90
37002;DHT22;22913;51.910;8.374;2022-07-30T12:50:22;31.30;99.90
37002;DHT22;22913;51.910;8.374;2022-07-30T12:53:08;31.70;99.90
37002;DHT22;22913;51.910;8.374;2022-07-30T12:56:09;31.90;99.90
37002;DHT22;22913;51.910;8.374;2022-07-30T12:58:56;32.30;99.90
37002;DHT22;22913;51.910;8.374;2022-07-30T13:01:44;32.50;99.90
37002;DHT22;22913;51.910;8.374;2022-07-30T13:04:30;32.70;99.90
37002;DHT22;22913;51.910;8.374;2022-07-30T13:07:16;32.90;99.90
37002;DHT22;22913;51.910;8.374;2022-07-30T13:10:08;32.60;99.90
37002;DHT22;22913;51.910;8.374;2022-07-30T13:12:54;32.50;99.90
37002;DHT22;22913;51.910;8.374;2022-07-30T13:15:40;32.80;99.90
37002;DHT22;22913;51.910;8.374;2022-07-30T13:18:26;33.20;99.90
37002;DHT22;22913;51.910;8.374;2022-07-30T13:21:11;33.30;99.90
37002;DHT22;22913;51.910;8.374;2022-07-30T13:23:58;33.10;99.90
37002;DHT22;22913;51.910;8.374;2022-07-30T13:26:45;33.00;99.90
37002;DHT22;22913;51.910;8.374;2022-07-30T13:29:31;32.70;99.90
37002;DHT22;22913;51.910;8.374;2022-07-30T13:32:16;32.80;99.90
37002;DHT22;22913;51.910;8.374;2022-07-30T13:35:03;32.60;99.90
37002;DHT22;22913;51.910;8.374;2022-07-30T13:37:48;32.70;99.90
37002;DHT22;22913;51.910;8.374;2022-07-30T13:40:34;33.30;99.90
37002;DHT22;22913;51.910;8.374;2022-07-30T13:43:21;33.80;99.90
37002;DHT22;22913;51.910;8.374;2022-07-30T13:46:07;33.50;99.20
37002;DHT22;22913;51.910;8.374;2022-07-30T13:48:53;33.40;99.50
37002;DHT22;22913;51.910;8.374;2022-07-30T13:51:38;33.40;99.30
37002;DHT22;22913;51.910;8.374;2022-07-30T13:54:24;33.20;98.70
37002;DHT22;22913;51.910;8.374;2022-07-30T13:57:10;32.90;98.90
37002;DHT22;22913;51.910;8.374;2022-07-30T13:59:57;33.30;99.00
37002;DHT22;22913;51.910;8.374;2022-07-30T14:02:42;32.90;98.50
37002;DHT22;22913;51.910;8.374;2022-07-30T14:05:29;32.80;98.60
37002;DHT22;22913;51.910;8.374;2022-07-30T14:08:14;32.70;98.00
37002;DHT22;22913;51.910;8.374;2022-07-30T14:11:00;32.40;98.20
37002;DHT22;22913;51.910;8.374;2022-07-30T14:13:46;32.80;98.20
37002;DHT22;22913;51.910;8.374;2022-07-30T14:16:33;32.90;96.90
37002;DHT22;22913;51.910;8.374;2022-07-30T14:19:19;33.10;96.80
37002;DHT22;22913;51.910;8.374;2022-07-30T14:22:05;33.10;95.30
37002;DHT22;22913;51.910;8.374;2022-07-30T14:24:50;33.40;95.80
37002;DHT22;22913;51.910;8.374;2022-07-30T14:27:36;33.80;95.30
37002;DHT22;22913;51.910;8.374;2022-07-30T14:30:22;34.00;95.00
37002;DHT22;22913;51.910;8.374;2022-07-30T14:33:10;34.00;94.80
37002;DHT22;22913;51.910;8.374;2022-07-30T14:35:56;33.80;94.10
37002;DHT22;22913;51.910;8.374;2022-07-30T14:38:41;34.10;93.50
37002;DHT22;22913;51.910;8.374;2022-07-30T14:41:27;34.10;93.40
37002;DHT22;22913;51.910;8.374;2022-07-30T14:44:13;34.70;93.00
37002;DHT22;22913;51.910;8.374;2022-07-30T14:46:58;34.80;92.50
37002;DHT22;22913;51.910;8.374;2022-07-30T14:49:45;34.70;92.40
37002;DHT22;22913;51.910;8.374;2022-07-30T14:52:31;35.30;91.30
37002;DHT22;22913;51.910;8.374;2022-07-30T14:55:18;35.40;90.50
37002;DHT22;22913;51.910;8.374;2022-07-30T14:58:04;35.80;89.20
37002;DHT22;22913;51.910;8.374;2022-07-30T15:00:49;36.20;88.40
37002;DHT22;22913;51.910;8.374;2022-07-30T15:03:35;36.00;87.80
37002;DHT22;22913;51.910;8.374;2022-07-30T15:06:22;35.90;87.00
37002;DHT22;22913;51.910;8.374;2022-07-30T15:09:08;35.80;86.30
37002;DHT22;22913;51.910;8.374;2022-07-30T15:11:54;35.20;87.90
37002;DHT22;22913;51.910;8.374;2022-07-30T15:14:39;35.10;87.30
37002;DHT22;22913;51.910;8.374;2022-07-30T15:17:25;35.30;85.50
37002;DHT22;22913;51.910;8.374;2022-07-30T15:20:11;35.30;84.50
37002;DHT22;22913;51.910;8.374;2022-07-30T15:22:58;35.10;85.40
37002;DHT22;22913;51.910;8.374;2022-07-30T15:25:44;34.70;84.60
37002;DHT22;22913;51.910;8.374;2022-07-30T15:28:32;34.60;84.20
37002;DHT22;22913;51.910;8.374;2022-07-30T15:31:17;34.20;84.00
37002;DHT22;22913;51.910;8.374;2022-07-30T15:34:03;34.00;84.50
37002;DHT22;22913;51.910;8.374;2022-07-30T15:36:53;33.60;85.10
37002;DHT22;22913;51.910;8.374;2022-07-30T15:39:40;33.60;85.70
37002;DHT22;22913;51.910;8.374;2022-07-30T15:42:26;33.60;85.80
37002;DHT22;22913;51.910;8.374;2022-07-30T15:45:13;33.50;86.00
37002;DHT22;22913;51.910;8.374;2022-07-30T15:47:58;33.50;85.70
37002;DHT22;22913;51.910;8.374;2022-07-30T15:50:44;33.50;86.10
37002;DHT22;22913;51.910;8.374;2022-07-30T15:53:31;33.60;86.10
37002;DHT22;22913;51.910;8.374;2022-07-30T15:56:18;33.70;85.90
37002;DHT22;22913;51.910;8.374;2022-07-30T15:59:04;33.40;86.20
37002;DHT22;22913;51.910;8.374;2022-07-30T16:01:50;33.10;85.80
37002;DHT22;22913;51.910;8.374;2022-07-30T16:04:36;33.00;85.90
37002;DHT22;22913;51.910;8.374;2022-07-30T16:07:21;32.50;86.00
37002;DHT22;22913;51.910;8.374;2022-07-30T16:10:07;32.40;86.50
37002;DHT22;22913;51.910;8.374;2022-07-30T16:12:55;32.30;86.10
37002;DHT22;22913;51.910;8.374;2022-07-30T16:15:40;32.20;86.30
37002;DHT22;22913;51.910;8.374;2022-07-30T16:18:26;32.00;85.90
37002;DHT22;22913;51.910;8.374;2022-07-30T16:21:12;31.40;86.40
37002;DHT22;22913;51.910;8.374;2022-07-30T16:23:57;31.00;87.40
37002;DHT22;22913;51.910;8.374;2022-07-30T16:26:43;31.00;87.70
37002;DHT22;22913;51.910;8.374;2022-07-30T16:29:30;30.90;88.00
37002;DHT22;22913;51.910;8.374;2022-07-30T16:32:15;30.90;89.00
37002;DHT22;22913;51.910;8.374;2022-07-30T16:35:01;30.90;89.30
37002;DHT22;22913;51.910;8.374;2022-07-30T16:37:46;30.70;89.40
37002;DHT22;22913;51.910;8.374;2022-07-30T16:40:32;30.70;90.00
37002;DHT22;22913;51.910;8.374;2022-07-30T16:43:17;30.70;90.00
37002;DHT22;22913;51.910;8.374;2022-07-30T16:46:05;30.70;89.30
37002;DHT22;22913;51.910;8.374;2022-07-30T16:48:50;30.50;89.90
37002;DHT22;22913;51.910;8.374;2022-07-30T16:51:36;30.50;90.10
37002;DHT22;22913;51.910;8.374;2022-07-30T16:54:22;30.60;89.70
37002;DHT22;22913;51.910;8.374;2022-07-30T16:57:07;30.50;89.70
37002;DHT22;22913;51.910;8.374;2022-07-30T16:59:53;30.50;89.20
37002;DHT22;22913;51.910;8.374;2022-07-30T17:02:40;30.40;88.40
37002;DHT22;22913;51.910;8.374;2022-07-30T17:05:25;30.20;89.00
37002;DHT22;22913;51.910;8.374;2022-07-30T17:08:11;30.10;88.40
37002;DHT22;22913;51.910;8.374;2022-07-30T17:10:57;30.30;88.90
37002;DHT22;22913;51.910;8.374;2022-07-30T17:13:42;30.30;89.20
37002;DHT22;22913;51.910;8.374;2022-07-30T17:16:28;30.30;88.70
37002;DHT22;22913;51.910;8.374;2022-07-30T17:19:15;30.40;88.90
37002;DHT22;22913;51.910;8.374;2022-07-30T17:22:00;30.50;89.00
37002;DHT22;22913;51.910;8.374;2022-07-30T17:24:46;30.40;88.20
37002;DHT22;22913;51.910;8.374;2022-07-30T17:27:32;30.30;88.40
37002;DHT22;22913;51.910;8.374;2022-07-30T17:30:18;30.20;88.50
37002;DHT22;22913;51.910;8.374;2022-07-30T17:33:04;30.20;88.10
37002;DHT22;22913;51.910;8.374;2022-07-30T17:35:51;30.00;88.90
37002;DHT22;22913;51.910;8.374;2022-07-30T17:38:36;29.90;88.70